createdAt,value
2017-04-28T00:00:11.668Z,83.60
2017-04-28T00:02:39.315Z,83.40
2017-04-28T00:05:07.259Z,82.90
2017-04-28T00:07:34.911Z,84.00
2017-04-28T00:10:02.557Z,84.80
2017-04-28T00:12:30.231Z,84.90
2017-04-28T00:14:57.890Z,84.90
2017-04-28T00:17:26.332Z,85.10
2017-04-28T00:19:55.499Z,84.60
2017-04-28T00:22:23.563Z,84.50
2017-04-28T00:24:51.212Z,84.70
2017-04-28T00:27:19.630Z,83.70
2017-04-28T00:29:47.301Z,83.80
2017-04-28T00:32:14.954Z,83.30
2017-04-28T00:34:43.456Z,84.30
2017-04-28T00:37:11.865Z,84.20
2017-04-28T00:39:39.825Z,84.20
2017-04-28T00:42:07.465Z,84.60
2017-04-28T00:44:35.110Z,85.10
2017-04-28T00:47:02.777Z,84.40
2017-04-28T00:49:30.432Z,84.40
2017-04-28T00:51:58.388Z,84.70
2017-04-28T00:54:26.053Z,85.10
2017-04-28T00:56:53.790Z,84.60
2017-04-28T00:59:21.480Z,84.40
2017-04-28T01:01:49.116Z,83.90
2017-04-28T01:04:17.559Z,84.30
2017-04-28T01:06:45.210Z,84.10
2017-04-28T01:09:13.923Z,85.30
2017-04-28T01:11:41.563Z,85.40
2017-04-28T01:14:09.988Z,86.20
2017-04-28T01:16:39.173Z,86.50
2017-04-28T01:19:07.601Z,86.80
2017-04-28T01:21:35.597Z,86.80
2017-04-28T01:24:03.259Z,86.20
2017-04-28T01:26:31.670Z,86.30
2017-04-28T01:28:59.349Z,86.20
2017-04-28T01:31:27.114Z,86.20
2017-04-28T01:33:55.846Z,86.80
2017-04-28T01:36:23.536Z,86.80
2017-04-28T01:38:51.956Z,87.60
2017-04-28T01:41:19.638Z,87.50
2017-04-28T01:43:47.286Z,87.60
2017-04-28T01:46:15.299Z,87.40
2017-04-28T01:48:42.941Z,87.50
2017-04-28T01:51:10.599Z,86.60
2017-04-28T01:53:38.289Z,88.20
2017-04-28T01:56:06.702Z,87.80
2017-04-28T01:58:35.402Z,87.60
2017-04-28T02:01:03.053Z,87.60
2017-04-28T02:03:30.705Z,87.30
2017-04-28T02:05:58.374Z,87.20
2017-04-28T02:08:26.027Z,86.10
2017-04-28T02:10:54.753Z,87.90
2017-04-28T02:13:22.396Z,87.90
2017-04-28T02:15:50.042Z,88.70
2017-04-28T02:18:18.508Z,87.30
2017-04-28T02:20:46.940Z,87.70
2017-04-28T02:23:14.611Z,87.60
2017-04-28T02:25:42.267Z,87.30
2017-04-28T02:28:10.210Z,87.10
2017-04-28T02:30:38.629Z,85.90
2017-04-28T02:33:07.075Z,86.20
2017-04-28T02:35:34.997Z,86.00
2017-04-28T02:38:03.406Z,86.00
2017-04-28T02:40:32.272Z,85.60
2017-04-28T02:43:02.064Z,86.00
2017-04-28T02:45:30.472Z,86.50
2017-04-28T02:47:58.124Z,86.80
2017-04-28T02:50:25.789Z,86.60
2017-04-28T02:52:53.437Z,87.00
2017-04-28T02:55:21.109Z,87.10
2017-04-28T02:57:49.533Z,86.70
2017-04-28T03:00:17.220Z,86.60
2017-04-28T03:02:44.880Z,86.90
2017-04-28T03:05:13.647Z,88.60
2017-04-28T03:07:41.308Z,88.60
2017-04-28T03:10:09.725Z,88.20
2017-04-28T03:12:38.181Z,87.00
2017-04-28T03:15:05.834Z,87.00
2017-04-28T03:17:34.613Z,87.50
2017-04-28T03:20:03.037Z,88.30
2017-04-28T03:22:30.689Z,88.30
2017-04-28T03:24:58.389Z,88.70
2017-04-28T03:27:26.039Z,88.30
2017-04-28T03:29:53.717Z,89.00
2017-04-28T03:32:22.145Z,90.90
2017-04-28T03:34:49.849Z,91.00
2017-04-28T03:37:17.513Z,91.30
2017-04-28T03:39:45.188Z,91.60
2017-04-28T03:42:14.341Z,91.30
2017-04-28T03:44:42.311Z,91.20
2017-04-28T03:47:10.718Z,91.40
2017-04-28T03:49:39.130Z,91.40
2017-04-28T03:52:06.818Z,91.40
2017-04-28T03:54:34.470Z,91.60
2017-04-28T03:57:03.196Z,90.20
2017-04-28T03:59:30.834Z,90.10
2017-04-28T04:01:58.484Z,90.20
2017-04-28T04:04:26.158Z,90.60
2017-04-28T04:06:53.818Z,90.70
2017-04-28T04:09:22.568Z,91.00
2017-04-28T04:11:50.217Z,91.10
2017-04-28T04:14:18.884Z,91.50
2017-04-28T04:16:46.659Z,90.90
2017-04-28T04:19:14.306Z,90.70
2017-04-28T04:21:41.992Z,91.10
2017-04-28T04:24:09.640Z,91.80
2017-04-28T04:26:38.073Z,92.30
2017-04-28T04:29:06.529Z,92.10
2017-04-28T04:31:34.485Z,91.90
2017-04-28T04:34:02.130Z,91.90
2017-04-28T04:36:29.782Z,91.40
2017-04-28T04:38:57.444Z,91.90
2017-04-28T04:41:25.856Z,92.60
2017-04-28T04:43:53.535Z,92.50
2017-04-28T04:46:21.957Z,90.70
2017-04-28T04:48:50.083Z,90.70
2017-04-28T04:51:17.787Z,89.80
2017-04-28T04:53:45.436Z,89.50
2017-04-28T04:56:14.912Z,88.80
2017-04-28T04:58:42.561Z,88.50
2017-04-28T05:01:10.965Z,88.20
2017-04-28T05:03:39.685Z,87.80
2017-04-28T05:06:07.333Z,87.70
2017-04-28T05:08:34.971Z,87.70
2017-04-28T05:11:03.778Z,87.00
2017-04-28T05:13:31.423Z,87.00
2017-04-28T05:15:59.070Z,87.00
2017-04-28T05:18:27.105Z,86.10
2017-04-28T05:20:54.748Z,85.90
2017-04-28T05:23:22.394Z,85.80
2017-04-28T05:25:50.349Z,85.50
2017-04-28T05:28:18.010Z,85.40
2017-04-28T05:30:45.657Z,85.80
2017-04-28T05:33:14.409Z,85.10
2017-04-28T05:35:42.049Z,85.30
2017-04-28T05:38:10.466Z,84.50
2017-04-28T05:40:39.198Z,83.60
2017-04-28T05:43:06.850Z,83.60
2017-04-28T05:45:34.497Z,84.10
2017-04-28T05:48:02.485Z,83.80
2017-04-28T05:50:30.900Z,82.60
2017-04-28T05:52:59.304Z,81.20
2017-04-28T05:55:27.341Z,81.20
2017-04-28T05:57:55.752Z,80.70
2017-04-28T06:00:24.173Z,79.10
2017-04-28T06:02:52.119Z,79.10
2017-04-28T06:05:20.566Z,78.70
2017-04-28T06:07:48.985Z,77.00
2017-04-28T06:10:17.722Z,75.40
2017-04-28T06:12:46.137Z,77.00
2017-04-28T06:15:13.795Z,77.40
2017-04-28T06:17:41.776Z,76.10
2017-04-28T06:20:09.423Z,74.30
2017-04-28T06:22:37.075Z,75.60
2017-04-28T06:25:05.028Z,77.00
2017-04-28T06:27:33.440Z,72.90
2017-04-28T06:30:01.859Z,74.00
2017-04-28T06:32:29.784Z,73.90
2017-04-28T06:34:57.433Z,72.90
2017-04-28T06:37:25.088Z,73.20
2017-04-28T06:39:53.876Z,70.60
2017-04-28T06:42:21.528Z,70.50
2017-04-28T06:44:49.164Z,72.10
2017-04-28T06:47:17.229Z,69.00
2017-04-28T06:49:44.880Z,72.00
2017-04-28T06:52:12.517Z,75.60
2017-04-28T06:54:40.470Z,75.90
2017-04-28T06:57:08.124Z,75.00
2017-04-28T06:59:35.800Z,73.60
2017-04-28T07:02:03.825Z,72.50
2017-04-28T07:04:31.458Z,73.80
2017-04-28T07:06:59.104Z,71.20
2017-04-28T07:09:27.085Z,71.20
2017-04-28T07:11:54.724Z,71.30
2017-04-28T07:14:22.375Z,69.50
2017-04-28T07:16:50.312Z,69.90
2017-04-28T07:19:17.978Z,70.10
2017-04-28T07:21:45.644Z,66.90
2017-04-28T07:24:14.385Z,69.00
2017-04-28T07:26:42.028Z,68.90
2017-04-28T07:29:09.725Z,66.90
2017-04-28T07:31:38.464Z,68.10
2017-04-28T07:34:06.126Z,68.10
2017-04-28T07:36:33.787Z,67.40
2017-04-28T07:39:01.729Z,66.70
2017-04-28T07:41:29.383Z,67.00
2017-04-28T07:43:57.796Z,65.90
2017-04-28T07:46:25.773Z,65.80
2017-04-28T07:48:53.444Z,66.30
2017-04-28T07:51:21.083Z,65.50
2017-04-28T07:53:49.009Z,65.80
2017-04-28T07:56:16.657Z,64.70
2017-04-28T07:58:44.308Z,64.20
2017-04-28T08:01:12.249Z,65.30
2017-04-28T08:03:39.884Z,66.40
2017-04-28T08:06:07.545Z,64.30
2017-04-28T08:08:35.612Z,64.20
2017-04-28T08:11:03.272Z,63.60
2017-04-28T08:13:30.912Z,66.00
2017-04-28T08:15:59.665Z,62.50
2017-04-28T08:18:27.314Z,62.40
2017-04-28T08:20:54.968Z,59.80
2017-04-28T08:23:23.020Z,60.40
2017-04-28T08:25:50.660Z,60.80
2017-04-28T08:28:18.309Z,62.50
2017-04-28T08:30:47.076Z,62.10
2017-04-28T08:33:14.720Z,62.00
2017-04-28T08:35:42.356Z,57.00
2017-04-28T08:38:10.335Z,58.00
2017-04-28T08:40:37.980Z,58.10
2017-04-28T08:43:05.633Z,57.10
2017-04-28T08:45:33.689Z,59.20
2017-04-28T08:48:02.106Z,58.10
2017-04-28T08:50:29.759Z,58.00
2017-04-28T08:52:57.734Z,59.80
2017-04-28T08:55:25.385Z,57.90
2017-04-28T08:57:53.031Z,57.90
2017-04-28T09:00:21.005Z,56.80
2017-04-28T09:02:48.653Z,55.40
2017-04-28T09:05:16.296Z,56.50
2017-04-28T09:07:44.237Z,57.00
2017-04-28T09:10:12.645Z,57.30
2017-04-28T09:12:41.063Z,58.10
2017-04-28T09:15:09.129Z,58.20
2017-04-28T09:17:36.771Z,56.30
2017-04-28T09:20:04.416Z,56.50
2017-04-28T09:22:32.367Z,55.60
2017-04-28T09:25:00.777Z,57.30
2017-04-28T09:27:29.191Z,56.50
2017-04-28T09:29:57.148Z,55.90
2017-04-28T09:32:25.564Z,54.80
2017-04-28T09:34:53.992Z,53.70
2017-04-28T09:37:22.704Z,53.20
2017-04-28T09:39:51.119Z,51.00
2017-04-28T09:42:18.763Z,51.00
2017-04-28T09:44:48.157Z,52.70
2017-04-28T09:47:15.806Z,52.60
2017-04-28T09:49:43.453Z,51.40
2017-04-28T09:52:12.233Z,51.40
2017-04-28T09:54:39.881Z,51.40
2017-04-28T09:57:07.553Z,50.80
2017-04-28T09:59:36.285Z,50.50
2017-04-28T10:02:03.940Z,50.40
2017-04-28T10:04:31.590Z,48.70
2017-04-28T10:06:59.641Z,48.70
2017-04-28T10:09:27.292Z,50.00
2017-04-28T10:11:54.940Z,51.20
2017-04-28T10:14:22.977Z,45.60
2017-04-28T10:16:51.393Z,46.30
2017-04-28T10:19:19.945Z,44.80
2017-04-28T10:21:47.983Z,44.80
2017-04-28T10:24:15.638Z,43.90
2017-04-28T10:26:44.050Z,43.00
2017-04-28T10:29:12.029Z,43.00
2017-04-28T10:31:39.683Z,41.50
2017-04-28T10:34:07.365Z,43.20
2017-04-28T10:36:35.345Z,39.50
2017-04-28T10:39:02.994Z,39.70
2017-04-28T10:41:30.637Z,39.10
2017-04-28T10:43:58.638Z,38.60
2017-04-28T10:46:26.290Z,37.30
2017-04-28T10:48:53.951Z,37.30
2017-04-28T10:51:22.694Z,37.90
2017-04-28T10:53:50.345Z,37.90
2017-04-28T10:56:18.798Z,36.60
2017-04-28T10:58:46.767Z,36.60
2017-04-28T11:01:14.414Z,37.40
2017-04-28T11:03:42.061Z,39.70
2017-04-28T11:06:09.988Z,38.10
2017-04-28T11:08:38.402Z,38.20
2017-04-28T11:11:06.053Z,38.20
2017-04-28T11:13:34.071Z,34.30
2017-04-28T11:16:01.714Z,35.10
2017-04-28T11:18:30.219Z,37.00
2017-04-28T11:20:58.229Z,37.00
2017-04-28T11:23:25.872Z,36.00
2017-04-28T11:25:54.285Z,35.40
2017-04-28T11:28:22.244Z,35.30
2017-04-28T11:30:50.656Z,39.10
2017-04-28T11:33:18.318Z,38.40
2017-04-28T11:35:46.364Z,42.30
2017-04-28T11:38:14.782Z,41.50
2017-04-28T11:40:43.197Z,42.60
2017-04-28T11:43:11.153Z,42.60
2017-04-28T11:45:38.815Z,43.20
2017-04-28T11:48:06.487Z,44.60
2017-04-28T11:50:34.519Z,41.80
2017-04-28T11:53:02.175Z,38.80
2017-04-28T11:55:29.841Z,39.20
2017-04-28T11:57:58.574Z,40.00
2017-04-28T12:00:26.225Z,39.90
2017-04-28T12:02:53.879Z,40.30
2017-04-28T12:05:21.920Z,42.80
2017-04-28T12:07:49.577Z,41.90
2017-04-28T12:10:17.225Z,40.00
2017-04-28T12:12:45.261Z,41.80
2017-04-28T12:15:12.904Z,42.00
2017-04-28T12:17:41.321Z,39.20
2017-04-28T12:20:10.027Z,36.50
2017-04-28T12:22:37.669Z,36.50
2017-04-28T12:25:06.096Z,38.10
2017-04-28T12:27:34.124Z,38.10
2017-04-28T12:30:01.771Z,37.40
2017-04-28T12:32:29.443Z,37.80
2017-04-28T12:34:58.195Z,35.80
2017-04-28T12:37:27.357Z,36.70
2017-04-28T12:39:55.034Z,36.70
2017-04-28T12:42:23.081Z,36.50
2017-04-28T12:44:50.729Z,35.40
2017-04-28T12:47:18.380Z,36.80
2017-04-28T12:49:47.854Z,37.40
2017-04-28T12:52:16.276Z,35.80
2017-04-28T12:54:43.930Z,35.80
2017-04-28T12:57:11.916Z,36.50
2017-04-28T12:59:39.582Z,36.20
2017-04-28T13:02:08.732Z,35.30
2017-04-28T13:04:37.463Z,35.80
2017-04-28T13:07:05.951Z,36.70
2017-04-28T13:09:33.626Z,36.60
2017-04-28T13:12:01.600Z,37.40
2017-04-28T13:14:30.008Z,38.50
2017-04-28T13:16:58.418Z,36.70
2017-04-28T13:19:26.489Z,36.70
2017-04-28T13:21:54.149Z,37.20
2017-04-28T13:24:21.809Z,36.50
2017-04-28T13:26:50.506Z,38.30
2017-04-28T13:29:18.157Z,38.30
2017-04-28T13:31:45.810Z,36.90
2017-04-28T13:34:13.934Z,38.30
2017-04-28T13:36:42.349Z,36.10
2017-04-28T13:39:10.005Z,36.10
2017-04-28T13:41:38.781Z,38.10
2017-04-28T13:44:06.420Z,38.10
2017-04-28T13:46:34.073Z,37.90
2017-04-28T13:49:02.121Z,37.40
2017-04-28T13:51:29.769Z,38.10
2017-04-28T13:53:57.416Z,37.70
2017-04-28T13:56:25.382Z,37.00
2017-04-28T13:58:53.045Z,38.40
2017-04-28T14:01:21.480Z,38.70
2017-04-28T14:03:49.545Z,39.10
2017-04-28T14:06:17.188Z,39.30
2017-04-28T14:08:45.591Z,49.10
2017-04-28T14:11:14.416Z,56.70
2017-04-28T14:13:42.073Z,56.70
2017-04-28T14:16:09.716Z,59.30
2017-04-28T14:18:38.472Z,57.00
2017-04-28T14:21:06.137Z,56.80
2017-04-28T14:23:33.777Z,60.30
2017-04-28T14:26:02.546Z,65.20
2017-04-28T14:28:30.192Z,65.20
2017-04-28T14:30:57.849Z,61.40
2017-04-28T14:33:25.793Z,56.10
2017-04-28T14:35:54.215Z,55.30
2017-04-28T14:38:22.629Z,59.90
2017-04-28T14:40:51.365Z,54.10
2017-04-28T14:43:19.018Z,54.00
2017-04-28T14:45:46.665Z,52.70
2017-04-28T14:48:14.752Z,52.30
2017-04-28T14:50:42.404Z,48.50
2017-04-28T14:53:10.710Z,46.40
2017-04-28T14:55:38.660Z,46.50
2017-04-28T14:58:07.082Z,49.10
2017-04-28T15:00:34.747Z,49.10
2017-04-28T15:03:02.706Z,51.10
2017-04-28T15:05:30.342Z,51.70
2017-04-28T15:07:58.760Z,50.30
2017-04-28T15:10:27.564Z,53.70
2017-04-28T15:12:55.212Z,53.70
2017-04-28T15:15:22.867Z,52.50
2017-04-28T15:17:50.826Z,55.80
2017-04-28T15:20:18.481Z,59.90
2017-04-28T15:22:46.127Z,58.60
2017-04-28T15:25:14.863Z,56.90
2017-04-28T15:27:42.520Z,57.00
2017-04-28T15:30:10.936Z,52.50
2017-04-28T15:32:38.941Z,52.50
2017-04-28T15:35:06.616Z,53.50
2017-04-28T15:37:34.286Z,50.50
2017-04-28T15:40:03.138Z,50.00
2017-04-28T15:42:30.820Z,49.90
2017-04-28T15:44:59.233Z,46.90
2017-04-28T15:47:27.181Z,46.80
2017-04-28T15:49:54.852Z,51.60
2017-04-28T15:52:23.279Z,50.40
2017-04-28T15:54:51.228Z,50.40
2017-04-28T15:57:18.882Z,53.10
2017-04-28T15:59:46.536Z,52.20
2017-04-28T16:02:14.593Z,47.20
2017-04-28T16:04:42.310Z,47.50
2017-04-28T16:07:09.959Z,50.40
2017-04-28T16:09:37.898Z,49.50
2017-04-28T16:12:06.315Z,51.60
2017-04-28T16:14:33.960Z,51.60
2017-04-28T16:17:01.996Z,47.60
2017-04-28T16:19:29.653Z,50.00
2017-04-28T16:21:57.329Z,53.20
2017-04-28T16:24:26.308Z,54.50
2017-04-28T16:26:54.745Z,53.60
2017-04-28T16:29:22.386Z,53.40
2017-04-28T16:31:50.329Z,54.70
2017-04-28T16:34:18.775Z,57.30
2017-04-28T16:36:47.223Z,57.00
2017-04-28T16:39:15.227Z,56.90
2017-04-28T16:41:42.872Z,58.30
2017-04-28T16:44:10.554Z,57.50
2017-04-28T16:46:38.542Z,60.10
2017-04-28T16:49:06.223Z,61.60
2017-04-28T16:51:33.910Z,64.20
2017-04-28T16:54:02.644Z,65.90
2017-04-28T16:56:30.310Z,65.80
2017-04-28T16:58:58.002Z,64.20
2017-04-28T17:01:25.986Z,62.60
2017-04-28T17:03:53.666Z,64.60
2017-04-28T17:06:22.109Z,65.20
2017-04-28T17:08:50.053Z,64.40
2017-04-28T17:11:18.686Z,65.60
2017-04-28T17:13:46.416Z,63.10
2017-04-28T17:16:14.433Z,62.80
2017-04-28T17:18:42.204Z,62.70
2017-04-28T17:21:10.685Z,60.50
2017-04-28T17:23:38.802Z,60.40
2017-04-28T17:26:07.212Z,62.60
2017-04-28T17:28:34.895Z,62.60
2017-04-28T17:31:03.690Z,61.30
2017-04-28T17:33:32.125Z,63.50
2017-04-28T17:36:01.929Z,62.80
2017-04-28T17:38:29.987Z,62.60
2017-04-28T17:40:57.700Z,62.10
2017-04-28T17:43:25.414Z,63.50
2017-04-28T17:45:54.097Z,63.40
2017-04-28T17:48:22.618Z,64.90
2017-04-28T17:50:50.373Z,65.00
2017-04-28T17:53:18.342Z,63.90
2017-04-28T17:55:47.550Z,64.00
2017-04-28T17:58:15.188Z,63.90
2017-04-28T18:00:43.212Z,63.20
2017-04-28T18:03:10.861Z,61.70
2017-04-28T18:05:38.556Z,65.80
2017-04-28T18:08:06.745Z,66.30
2017-04-28T18:10:34.463Z,66.20
2017-04-28T18:13:02.925Z,67.30
2017-04-28T18:15:31.173Z,67.30
2017-04-28T18:17:58.839Z,66.20
2017-04-28T18:20:28.313Z,65.40
2017-04-28T18:22:56.344Z,63.50
2017-04-28T18:25:24.005Z,65.00
2017-04-28T18:27:52.447Z,66.70
2017-04-28T18:30:20.457Z,66.60
2017-04-28T18:32:48.879Z,71.30
2017-04-28T18:35:16.561Z,71.30
2017-04-28T18:37:45.284Z,74.90
2017-04-28T18:40:13.701Z,75.80
2017-04-28T18:42:42.113Z,76.50
2017-04-28T18:45:10.213Z,76.40
2017-04-28T18:47:37.934Z,75.70
2017-04-28T18:50:05.577Z,75.00
2017-04-28T18:52:34.301Z,73.80
2017-04-28T18:55:02.773Z,75.00
2017-04-28T18:57:30.471Z,75.00
2017-04-28T18:59:58.413Z,74.70
2017-04-28T19:02:26.062Z,74.40
2017-04-28T19:04:53.709Z,75.00
2017-04-28T19:07:22.567Z,76.40
2017-04-28T19:09:51.089Z,76.20
2017-04-28T19:12:19.522Z,79.30
2017-04-28T19:14:47.564Z,79.20
2017-04-28T19:17:15.210Z,79.80
2017-04-28T19:19:42.860Z,81.80
2017-04-28T19:22:10.781Z,82.50
2017-04-28T19:24:39.289Z,82.20
2017-04-28T19:27:06.965Z,82.20
2017-04-28T19:29:35.693Z,84.40
2017-04-28T19:32:03.341Z,83.80
2017-04-28T19:34:30.996Z,84.90
2017-04-28T19:36:58.966Z,83.80
2017-04-28T19:39:26.617Z,82.90
2017-04-28T19:41:54.270Z,82.00
2017-04-28T19:44:22.220Z,83.90
2017-04-28T19:46:51.439Z,83.20
2017-04-28T19:49:19.899Z,82.20
2017-04-28T19:51:47.862Z,82.10
2017-04-28T19:54:15.512Z,82.60
2017-04-28T19:56:43.172Z,82.60
2017-04-28T19:59:11.138Z,83.50
2017-04-28T20:01:38.789Z,83.60
2017-04-28T20:04:06.445Z,83.80
2017-04-28T20:06:34.395Z,84.50
2017-04-28T20:09:02.036Z,84.70
2017-04-28T20:11:29.681Z,84.10
2017-04-28T20:13:57.638Z,84.90
2017-04-28T20:16:26.071Z,84.70
2017-04-28T20:18:54.485Z,84.30
2017-04-28T20:21:23.373Z,84.50
2017-04-28T20:23:51.129Z,84.50
2017-04-28T20:26:18.774Z,84.70
2017-04-28T20:28:47.505Z,87.50
2017-04-28T20:31:15.944Z,87.50
2017-04-28T20:33:44.345Z,88.80
2017-04-28T20:36:12.286Z,89.50
2017-04-28T20:38:39.937Z,90.10
2017-04-28T20:41:07.587Z,90.10
2017-04-28T20:43:35.563Z,88.70
2017-04-28T20:46:03.213Z,88.60
2017-04-28T20:48:30.862Z,88.20
2017-04-28T20:50:59.573Z,86.70
2017-04-28T20:53:27.213Z,86.70
2017-04-28T20:55:54.885Z,87.40
2017-04-28T20:58:22.858Z,89.10
2017-04-28T21:00:50.504Z,89.80
2017-04-28T21:03:18.160Z,90.60
2017-04-28T21:05:46.120Z,90.60
2017-04-28T21:08:13.774Z,90.60
2017-04-28T21:10:41.413Z,90.20
2017-04-28T21:13:09.356Z,90.70
2017-04-28T21:15:38.518Z,92.40
2017-04-28T21:18:06.178Z,92.20
2017-04-28T21:20:34.110Z,93.10
2017-04-28T21:23:02.502Z,93.70
2017-04-28T21:25:30.146Z,93.80
2017-04-28T21:27:58.313Z,94.20
2017-04-28T21:30:25.972Z,94.30
2017-04-28T21:32:53.633Z,94.50
2017-04-28T21:35:22.452Z,94.30
2017-04-28T21:37:50.100Z,94.20
2017-04-28T21:40:17.741Z,94.10
2017-04-28T21:42:45.715Z,94.60
2017-04-28T21:45:13.370Z,94.40
2017-04-28T21:47:41.018Z,94.50
2017-04-28T21:50:09.057Z,95.00
2017-04-28T21:52:36.811Z,95.00
2017-04-28T21:55:04.466Z,95.10
2017-04-28T21:57:32.430Z,94.80
2017-04-28T22:00:00.078Z,94.80
2017-04-28T22:02:27.720Z,94.80
2017-04-28T22:04:56.476Z,95.40
2017-04-28T22:07:24.114Z,95.40
2017-04-28T22:09:52.554Z,96.00
2017-04-28T22:12:20.545Z,95.90
2017-04-28T22:15:03.074Z,96.10
2017-04-28T22:17:31.788Z,96.20
2017-04-28T22:19:59.433Z,96.20
2017-04-28T22:22:27.853Z,96.60
2017-04-28T22:24:56.567Z,96.20
2017-04-28T22:27:24.210Z,96.10
2017-04-28T22:29:51.869Z,96.10
2017-04-28T22:32:19.836Z,95.60
2017-04-28T22:34:47.487Z,95.20
2017-04-28T22:37:15.903Z,95.50
2017-04-28T22:39:43.919Z,96.20
2017-04-28T22:42:12.328Z,95.80
2017-04-28T22:44:39.978Z,95.70
2017-04-28T22:47:08.742Z,95.20
2017-04-28T22:49:37.179Z,95.90
2017-04-28T22:52:04.884Z,95.80
2017-04-28T22:54:32.957Z,95.80
2017-04-28T22:57:00.619Z,96.00
2017-04-28T22:59:29.770Z,96.00
2017-04-28T23:01:57.739Z,96.00
2017-04-28T23:04:25.387Z,95.90
2017-04-28T23:06:53.034Z,96.50
2017-04-28T23:09:21.001Z,96.70
2017-04-28T23:11:48.652Z,96.70
2017-04-28T23:14:17.072Z,97.00
2017-04-28T23:16:45.865Z,96.80
2017-04-28T23:19:13.509Z,96.80
2017-04-28T23:21:41.932Z,96.50
2017-04-28T23:24:10.660Z,96.30
2017-04-28T23:26:38.309Z,96.20
2017-04-28T23:29:05.965Z,96.20
2017-04-28T23:31:34.004Z,96.30
2017-04-28T23:34:01.651Z,95.90
2017-04-28T23:36:29.296Z,95.80
2017-04-28T23:38:58.067Z,94.90
2017-04-28T23:41:26.483Z,94.90
2017-04-28T23:43:54.934Z,95.50
2017-04-28T23:46:23.761Z,95.90
2017-04-28T23:48:51.411Z,95.90
2017-04-28T23:51:19.051Z,96.00
2017-04-28T23:53:47.023Z,96.10
2017-04-28T23:56:14.672Z,96.20
2017-04-28T23:58:42.332Z,96.70
